DFOR weather

Orodara Airport
Orodara, Kenedougou, Burkina Faso

Public forecast

Using degrees Celsius for public forecast. Weather courtesy of forecast.io.

Closest aviation weather report (METAR) to Orodara Airport

Closest report is Bobo Dioulasso Airport, 37.0 nm (68.6 km) ENE. Retrieved 2019/10/17 15:00 UTC (13 minutes ago):

DFOO 171500Z 34005KT 300V020 CAVOK 31/22 Q1012

Closest aviation forecast (TAF) to Orodara Airport

Closest forecast is Bobo Dioulasso Airport, 37.0 nm (68.6 km) ENE. Retrieved 2019/10/17 12:15 UTC (3 hours ago):

TAF DFOO 171100Z 1712/1812 22008KT 9999 FEW020 TEMPO 1716/1724 4000 TSRA SCT020 SCT033CB